sensor_id;sensor_type;location;lat;lon;timestamp;temperature;humidity
418;DHT22;49;48.530;9.200;2022-10-03T00:02:07;17.60;80.10
418;DHT22;49;48.530;9.200;2022-10-03T00:05:02;17.70;84.50
418;DHT22;49;48.530;9.200;2022-10-03T00:07:45;17.90;83.90
418;DHT22;49;48.530;9.200;2022-10-03T00:10:24;18.20;85.20
418;DHT22;49;48.530;9.200;2022-10-03T00:13:08;18.40;82.00
418;DHT22;49;48.530;9.200;2022-10-03T00:15:43;18.20;83.10
418;DHT22;49;48.530;9.200;2022-10-03T00:18:32;18.40;84.40
418;DHT22;49;48.530;9.200;2022-10-03T00:21:12;18.60;82.90
418;DHT22;49;48.530;9.200;2022-10-03T00:23:45;18.70;82.30
418;DHT22;49;48.530;9.200;2022-10-03T00:26:20;18.90;82.40
418;DHT22;49;48.530;9.200;2022-10-03T00:31:55;19.10;81.00
418;DHT22;49;48.530;9.200;2022-10-03T00:34:34;19.20;78.70
418;DHT22;49;48.530;9.200;2022-10-03T00:37:18;18.90;79.70
418;DHT22;49;48.530;9.200;2022-10-03T00:40:00;18.90;79.80
418;DHT22;49;48.530;9.200;2022-10-03T00:42:54;19.00;80.20
418;DHT22;49;48.530;9.200;2022-10-03T00:46:04;18.90;80.10
418;DHT22;49;48.530;9.200;2022-10-03T00:51:51;18.90;78.10
418;DHT22;49;48.530;9.200;2022-10-03T00:54:43;18.80;79.10
418;DHT22;49;48.530;9.200;2022-10-03T00:57:28;18.80;80.30
418;DHT22;49;48.530;9.200;2022-10-03T01:00:13;18.90;78.30
418;DHT22;49;48.530;9.200;2022-10-03T01:02:59;19.00;77.50
418;DHT22;49;48.530;9.200;2022-10-03T01:05:42;19.00;76.40
418;DHT22;49;48.530;9.200;2022-10-03T01:08:42;18.60;75.00
418;DHT22;49;48.530;9.200;2022-10-03T01:11:29;18.40;80.70
418;DHT22;49;48.530;9.200;2022-10-03T01:14:08;18.70;80.50
418;DHT22;49;48.530;9.200;2022-10-03T01:16:43;18.90;79.70
418;DHT22;49;48.530;9.200;2022-10-03T01:19:33;18.80;76.60
418;DHT22;49;48.530;9.200;2022-10-03T01:22:15;18.20;75.90
418;DHT22;49;48.530;9.200;2022-10-03T01:24:53;18.20;75.50
418;DHT22;49;48.530;9.200;2022-10-03T01:27:35;18.10;75.50
418;DHT22;49;48.530;9.200;2022-10-03T01:30:33;18.20;80.00
418;DHT22;49;48.530;9.200;2022-10-03T01:33:02;18.20;77.10
418;DHT22;49;48.530;9.200;2022-10-03T01:35:41;18.20;74.60
418;DHT22;49;48.530;9.200;2022-10-03T01:38:16;18.10;76.80
418;DHT22;49;48.530;9.200;2022-10-03T01:40:52;18.30;77.70
418;DHT22;49;48.530;9.200;2022-10-03T01:43:33;18.20;76.10
418;DHT22;49;48.530;9.200;2022-10-03T01:46:14;17.90;74.10
418;DHT22;49;48.530;9.200;2022-10-03T01:48:48;17.80;72.90
418;DHT22;49;48.530;9.200;2022-10-03T01:51:22;17.90;77.30
418;DHT22;49;48.530;9.200;2022-10-03T01:54:00;17.80;74.10
418;DHT22;49;48.530;9.200;2022-10-03T01:56:36;17.80;78.00
418;DHT22;49;48.530;9.200;2022-10-03T01:59:08;17.80;74.10
418;DHT22;49;48.530;9.200;2022-10-03T02:01:53;17.80;79.80
418;DHT22;49;48.530;9.200;2022-10-03T02:04:34;17.80;78.40
418;DHT22;49;48.530;9.200;2022-10-03T02:07:06;18.10;75.50
418;DHT22;49;48.530;9.200;2022-10-03T02:09:44;17.80;75.90
418;DHT22;49;48.530;9.200;2022-10-03T02:12:24;17.90;75.60
418;DHT22;49;48.530;9.200;2022-10-03T02:14:59;17.80;77.70
418;DHT22;49;48.530;9.200;2022-10-03T02:17:41;18.00;79.40
418;DHT22;49;48.530;9.200;2022-10-03T02:20:17;18.10;75.50
418;DHT22;49;48.530;9.200;2022-10-03T02:22:51;17.90;76.20
418;DHT22;49;48.530;9.200;2022-10-03T02:25:24;18.10;74.10
418;DHT22;49;48.530;9.200;2022-10-03T02:28:11;17.90;73.80
418;DHT22;49;48.530;9.200;2022-10-03T02:30:50;17.30;76.20
418;DHT22;49;48.530;9.200;2022-10-03T02:33:46;17.00;80.50
418;DHT22;49;48.530;9.200;2022-10-03T02:36:43;16.80;80.70
418;DHT22;49;48.530;9.200;2022-10-03T02:39:38;17.00;77.70
418;DHT22;49;48.530;9.200;2022-10-03T02:42:37;16.60;80.40
418;DHT22;49;48.530;9.200;2022-10-03T02:45:35;16.70;81.40
418;DHT22;49;48.530;9.200;2022-10-03T02:51:47;17.80;83.80
418;DHT22;49;48.530;9.200;2022-10-03T02:54:55;18.00;76.80
418;DHT22;49;48.530;9.200;2022-10-03T03:00:45;18.00;79.20
418;DHT22;49;48.530;9.200;2022-10-03T03:03:44;18.00;78.50
418;DHT22;49;48.530;9.200;2022-10-03T03:06:44;18.00;77.70
418;DHT22;49;48.530;9.200;2022-10-03T03:09:42;18.10;77.50
418;DHT22;49;48.530;9.200;2022-10-03T03:16:04;18.10;76.50
418;DHT22;49;48.530;9.200;2022-10-03T03:18:45;18.30;78.60
418;DHT22;49;48.530;9.200;2022-10-03T03:21:20;18.20;76.60
418;DHT22;49;48.530;9.200;2022-10-03T03:24:09;18.20;74.70
418;DHT22;49;48.530;9.200;2022-10-03T03:27:04;17.90;74.50
418;DHT22;49;48.530;9.200;2022-10-03T03:29:41;17.90;79.50
418;DHT22;49;48.530;9.200;2022-10-03T03:32:18;18.00;73.50
418;DHT22;49;48.530;9.200;2022-10-03T03:34:54;17.00;81.90
418;DHT22;49;48.530;9.200;2022-10-03T03:37:32;16.10;83.90
418;DHT22;49;48.530;9.200;2022-10-03T03:40:17;15.40;87.40
418;DHT22;49;48.530;9.200;2022-10-03T03:43:14;14.90;89.80
418;DHT22;49;48.530;9.200;2022-10-03T03:45:51;14.80;91.70
418;DHT22;49;48.530;9.200;2022-10-03T03:48:34;15.10;90.00
418;DHT22;49;48.530;9.200;2022-10-03T03:51:17;15.10;90.30
418;DHT22;49;48.530;9.200;2022-10-03T03:54:12;15.20;91.50
418;DHT22;49;48.530;9.200;2022-10-03T03:57:05;16.10;89.30
418;DHT22;49;48.530;9.200;2022-10-03T03:59:50;17.10;89.70
418;DHT22;49;48.530;9.200;2022-10-03T04:02:32;17.90;86.30
418;DHT22;49;48.530;9.200;2022-10-03T04:05:16;18.30;84.30
418;DHT22;49;48.530;9.200;2022-10-03T04:07:55;18.50;82.10
418;DHT22;49;48.530;9.200;2022-10-03T04:10:30;18.40;79.80
418;DHT22;49;48.530;9.200;2022-10-03T04:13:23;18.20;80.30
418;DHT22;49;48.530;9.200;2022-10-03T04:19:12;18.20;81.40
418;DHT22;49;48.530;9.200;2022-10-03T04:21:56;18.20;80.20
418;DHT22;49;48.530;9.200;2022-10-03T04:24:47;18.10;79.30
418;DHT22;49;48.530;9.200;2022-10-03T04:27:31;17.90;80.60
418;DHT22;49;48.530;9.200;2022-10-03T04:30:08;17.90;79.90
418;DHT22;49;48.530;9.200;2022-10-03T04:39:00;18.00;80.70
418;DHT22;49;48.530;9.200;2022-10-03T04:41:39;18.30;81.80
418;DHT22;49;48.530;9.200;2022-10-03T04:44:16;18.40;78.60
418;DHT22;49;48.530;9.200;2022-10-03T04:46:53;18.50;80.10
418;DHT22;49;48.530;9.200;2022-10-03T04:49:27;18.40;79.00
418;DHT22;49;48.530;9.200;2022-10-03T04:51:59;18.20;77.00
418;DHT22;49;48.530;9.200;2022-10-03T04:54:39;18.20;81.20
418;DHT22;49;48.530;9.200;2022-10-03T04:57:20;18.40;78.40
418;DHT22;49;48.530;9.200;2022-10-03T04:59:52;18.60;78.30
418;DHT22;49;48.530;9.200;2022-10-03T05:02:33;18.80;78.70
418;DHT22;49;48.530;9.200;2022-10-03T05:05:20;18.90;77.30
418;DHT22;49;48.530;9.200;2022-10-03T05:07:53;18.90;77.70
418;DHT22;49;48.530;9.200;2022-10-03T05:13:18;18.70;74.50
418;DHT22;49;48.530;9.200;2022-10-03T05:15:55;18.40;76.10
418;DHT22;49;48.530;9.200;2022-10-03T05:18:33;18.30;76.00
418;DHT22;49;48.530;9.200;2022-10-03T05:21:10;18.50;75.50
418;DHT22;49;48.530;9.200;2022-10-03T05:23:54;18.30;76.20
418;DHT22;49;48.530;9.200;2022-10-03T05:26:40;18.60;77.90
418;DHT22;49;48.530;9.200;2022-10-03T05:29:16;18.60;77.70
418;DHT22;49;48.530;9.200;2022-10-03T05:31:52;18.50;75.10
418;DHT22;49;48.530;9.200;2022-10-03T05:34:44;18.40;78.00
418;DHT22;49;48.530;9.200;2022-10-03T05:37:31;18.60;78.20
418;DHT22;49;48.530;9.200;2022-10-03T05:40:13;18.80;76.20
418;DHT22;49;48.530;9.200;2022-10-03T05:43:02;18.50;73.90
418;DHT22;49;48.530;9.200;2022-10-03T05:45:41;17.90;75.70
418;DHT22;49;48.530;9.200;2022-10-03T05:48:19;17.30;76.80
418;DHT22;49;48.530;9.200;2022-10-03T05:51:25;16.80;84.10
418;DHT22;49;48.530;9.200;2022-10-03T05:54:28;16.70;84.60
418;DHT22;49;48.530;9.200;2022-10-03T05:57:20;17.70;83.70
418;DHT22;49;48.530;9.200;2022-10-03T06:00:04;18.10;81.40
418;DHT22;49;48.530;9.200;2022-10-03T06:02:55;18.00;77.70
418;DHT22;49;48.530;9.200;2022-10-03T06:05:30;18.10;78.90
418;DHT22;49;48.530;9.200;2022-10-03T06:08:18;18.30;77.60
418;DHT22;49;48.530;9.200;2022-10-03T06:10:54;18.40;76.70
418;DHT22;49;48.530;9.200;2022-10-03T06:13:36;18.60;76.90
418;DHT22;49;48.530;9.200;2022-10-03T06:16:17;18.50;76.20
418;DHT22;49;48.530;9.200;2022-10-03T06:19:06;18.70;77.60
418;DHT22;49;48.530;9.200;2022-10-03T06:31:25;18.90;75.30
418;DHT22;49;48.530;9.200;2022-10-03T06:34:23;19.00;73.50
418;DHT22;49;48.530;9.200;2022-10-03T06:37:27;18.20;75.70
418;DHT22;49;48.530;9.200;2022-10-03T06:43:47;17.90;76.50
418;DHT22;49;48.530;9.200;2022-10-03T06:52:48;18.40;78.00
418;DHT22;49;48.530;9.200;2022-10-03T06:58:53;18.80;75.90
418;DHT22;49;48.530;9.200;2022-10-03T07:01:47;18.90;74.40
418;DHT22;49;48.530;9.200;2022-10-03T07:07:42;18.00;76.40
418;DHT22;49;48.530;9.200;2022-10-03T07:10:34;17.90;79.30
418;DHT22;49;48.530;9.200;2022-10-03T07:13:21;17.70;79.20
418;DHT22;49;48.530;9.200;2022-10-03T07:16:15;17.50;80.50
418;DHT22;49;48.530;9.200;2022-10-03T07:22:33;16.90;82.40
418;DHT22;49;48.530;9.200;2022-10-03T07:25:34;16.60;85.70
418;DHT22;49;48.530;9.200;2022-10-03T07:28:22;16.60;85.70
418;DHT22;49;48.530;9.200;2022-10-03T07:31:04;16.40;86.90
418;DHT22;49;48.530;9.200;2022-10-03T07:33:49;16.40;88.50
418;DHT22;49;48.530;9.200;2022-10-03T07:36:30;16.20;87.50
418;DHT22;49;48.530;9.200;2022-10-03T07:39:51;16.70;86.50
418;DHT22;49;48.530;9.200;2022-10-03T07:42:44;16.50;86.00
418;DHT22;49;48.530;9.200;2022-10-03T07:45:30;16.50;85.70
418;DHT22;49;48.530;9.200;2022-10-03T07:51:21;16.90;86.00
418;DHT22;49;48.530;9.200;2022-10-03T07:54:26;17.10;84.80
418;DHT22;49;48.530;9.200;2022-10-03T08:00:16;18.30;81.90
418;DHT22;49;48.530;9.200;2022-10-03T08:06:18;19.70;72.20
418;DHT22;49;48.530;9.200;2022-10-03T08:12:25;19.60;68.50
418;DHT22;49;48.530;9.200;2022-10-03T08:14:57;19.30;69.70
418;DHT22;49;48.530;9.200;2022-10-03T08:17:56;19.10;71.60
418;DHT22;49;48.530;9.200;2022-10-03T08:20:40;18.50;75.10
418;DHT22;49;48.530;9.200;2022-10-03T08:23:22;17.90;77.30
418;DHT22;49;48.530;9.200;2022-10-03T08:26:03;18.10;78.20
418;DHT22;49;48.530;9.200;2022-10-03T08:28:47;18.20;78.60
418;DHT22;49;48.530;9.200;2022-10-03T08:40:54;19.80;70.70
418;DHT22;49;48.530;9.200;2022-10-03T08:46:44;19.90;67.80
418;DHT22;49;48.530;9.200;2022-10-03T08:49:44;20.20;68.50
418;DHT22;49;48.530;9.200;2022-10-03T08:52:26;20.50;66.90
418;DHT22;49;48.530;9.200;2022-10-03T08:55:18;20.30;66.50
418;DHT22;49;48.530;9.200;2022-10-03T09:01:16;19.40;69.60
418;DHT22;49;48.530;9.200;2022-10-03T09:04:04;19.70;67.60
418;DHT22;49;48.530;9.200;2022-10-03T09:07:01;20.20;64.10
418;DHT22;49;48.530;9.200;2022-10-03T09:16:19;19.50;65.60
418;DHT22;49;48.530;9.200;2022-10-03T09:18:59;19.70;66.90
418;DHT22;49;48.530;9.200;2022-10-03T09:25:18;19.80;66.00
418;DHT22;49;48.530;9.200;2022-10-03T09:30:58;20.20;62.00
418;DHT22;49;48.530;9.200;2022-10-03T09:33:56;20.30;61.60
418;DHT22;49;48.530;9.200;2022-10-03T09:36:49;20.70;58.00
418;DHT22;49;48.530;9.200;2022-10-03T09:39:53;20.70;58.10
418;DHT22;49;48.530;9.200;2022-10-03T09:42:59;20.60;55.00
418;DHT22;49;48.530;9.200;2022-10-03T09:52:23;20.30;56.20
418;DHT22;49;48.530;9.200;2022-10-03T09:55:14;20.60;57.60
418;DHT22;49;48.530;9.200;2022-10-03T09:58:16;20.60;58.50
418;DHT22;49;48.530;9.200;2022-10-03T10:01:13;20.20;58.80
418;DHT22;49;48.530;9.200;2022-10-03T10:04:11;20.50;60.30
418;DHT22;49;48.530;9.200;2022-10-03T10:07:30;20.60;59.20
418;DHT22;49;48.530;9.200;2022-10-03T10:10:21;20.90;57.50
418;DHT22;49;48.530;9.200;2022-10-03T10:13:34;20.50;59.80
418;DHT22;49;48.530;9.200;2022-10-03T10:19:18;20.50;55.10
418;DHT22;49;48.530;9.200;2022-10-03T10:22:04;20.20;57.50
418;DHT22;49;48.530;9.200;2022-10-03T10:25:12;20.30;56.30
418;DHT22;49;48.530;9.200;2022-10-03T10:40:49;20.70;51.90
418;DHT22;49;48.530;9.200;2022-10-03T11:05:37;21.00;43.10
418;DHT22;49;48.530;9.200;2022-10-03T11:14:51;21.20;42.50
418;DHT22;49;48.530;9.200;2022-10-03T11:17:58;21.60;46.00
418;DHT22;49;48.530;9.200;2022-10-03T11:21:06;21.90;40.50
418;DHT22;49;48.530;9.200;2022-10-03T11:24:03;21.70;43.30
418;DHT22;49;48.530;9.200;2022-10-03T11:27:23;21.80;38.90
418;DHT22;49;48.530;9.200;2022-10-03T11:30:38;21.70;38.90
418;DHT22;49;48.530;9.200;2022-10-03T11:33:40;21.70;35.70
418;DHT22;49;48.530;9.200;2022-10-03T11:39:19;21.80;34.20
418;DHT22;49;48.530;9.200;2022-10-03T11:41:54;21.80;33.70
418;DHT22;49;48.530;9.200;2022-10-03T11:44:29;21.90;30.50
418;DHT22;49;48.530;9.200;2022-10-03T11:47:17;22.00;36.60
418;DHT22;49;48.530;9.200;2022-10-03T11:50:04;22.30;33.50
418;DHT22;49;48.530;9.200;2022-10-03T11:52:44;22.60;33.80
418;DHT22;49;48.530;9.200;2022-10-03T11:55:27;21.80;29.60
418;DHT22;49;48.530;9.200;2022-10-03T11:58:09;22.10;28.50
418;DHT22;49;48.530;9.200;2022-10-03T12:00:41;22.50;30.80
418;DHT22;49;48.530;9.200;2022-10-03T12:03:16;22.70;28.80
418;DHT22;49;48.530;9.200;2022-10-03T12:05:49;22.60;29.10
418;DHT22;49;48.530;9.200;2022-10-03T12:08:40;22.70;29.00
418;DHT22;49;48.530;9.200;2022-10-03T12:11:25;22.80;27.40
418;DHT22;49;48.530;9.200;2022-10-03T12:14:15;22.70;27.70
418;DHT22;49;48.530;9.200;2022-10-03T12:16:57;22.70;26.10
418;DHT22;49;48.530;9.200;2022-10-03T12:19:30;22.70;25.90
418;DHT22;49;48.530;9.200;2022-10-03T12:22:12;22.60;25.30
418;DHT22;49;48.530;9.200;2022-10-03T12:24:42;22.50;27.20
418;DHT22;49;48.530;9.200;2022-10-03T12:27:20;22.50;26.20
418;DHT22;49;48.530;9.200;2022-10-03T12:29:54;22.70;24.40
418;DHT22;49;48.530;9.200;2022-10-03T12:32:30;21.70;26.50
418;DHT22;49;48.530;9.200;2022-10-03T12:35:09;21.10;27.70
418;DHT22;49;48.530;9.200;2022-10-03T12:37:59;20.30;28.40
418;DHT22;49;48.530;9.200;2022-10-03T12:40:33;20.30;31.60
418;DHT22;49;48.530;9.200;2022-10-03T12:43:12;19.90;30.90
418;DHT22;49;48.530;9.200;2022-10-03T12:45:46;20.00;34.40
418;DHT22;49;48.530;9.200;2022-10-03T12:48:39;20.30;33.90
418;DHT22;49;48.530;9.200;2022-10-03T12:51:17;19.80;35.20
418;DHT22;49;48.530;9.200;2022-10-03T12:53:55;19.70;35.10
418;DHT22;49;48.530;9.200;2022-10-03T12:56:31;19.80;35.10
418;DHT22;49;48.530;9.200;2022-10-03T12:59:13;19.60;32.10
418;DHT22;49;48.530;9.200;2022-10-03T13:01:55;19.50;32.80
418;DHT22;49;48.530;9.200;2022-10-03T13:04:35;19.20;30.10
418;DHT22;49;48.530;9.200;2022-10-03T13:07:16;19.00;33.80
418;DHT22;49;48.530;9.200;2022-10-03T13:10:00;18.40;35.00
418;DHT22;49;48.530;9.200;2022-10-03T13:12:35;17.90;37.70
418;DHT22;49;48.530;9.200;2022-10-03T13:15:37;18.60;36.60
418;DHT22;49;48.530;9.200;2022-10-03T13:18:25;19.10;34.10
418;DHT22;49;48.530;9.200;2022-10-03T13:21:00;19.60;34.40
418;DHT22;49;48.530;9.200;2022-10-03T13:23:40;20.10;31.80
418;DHT22;49;48.530;9.200;2022-10-03T13:26:12;20.40;31.40
418;DHT22;49;48.530;9.200;2022-10-03T13:29:02;20.50;30.20
418;DHT22;49;48.530;9.200;2022-10-03T13:31:38;19.80;32.30
418;DHT22;49;48.530;9.200;2022-10-03T13:34:16;19.50;32.10
418;DHT22;49;48.530;9.200;2022-10-03T13:36:49;19.90;34.90
418;DHT22;49;48.530;9.200;2022-10-03T13:39:22;20.30;31.10
418;DHT22;49;48.530;9.200;2022-10-03T13:42:09;20.60;29.20
418;DHT22;49;48.530;9.200;2022-10-03T13:44:40;21.00;33.00
418;DHT22;49;48.530;9.200;2022-10-03T13:47:29;21.20;26.80
418;DHT22;49;48.530;9.200;2022-10-03T13:49:59;21.10;28.40
418;DHT22;49;48.530;9.200;2022-10-03T13:52:35;20.90;29.40
418;DHT22;49;48.530;9.200;2022-10-03T13:55:12;20.60;32.70
418;DHT22;49;48.530;9.200;2022-10-03T13:57:45;20.00;31.90
418;DHT22;49;48.530;9.200;2022-10-03T14:00:20;19.80;31.90
418;DHT22;49;48.530;9.200;2022-10-03T14:03:02;20.20;33.00
418;DHT22;49;48.530;9.200;2022-10-03T14:06:03;20.30;31.40
418;DHT22;49;48.530;9.200;2022-10-03T14:08:54;20.10;32.70
418;DHT22;49;48.530;9.200;2022-10-03T14:11:28;20.20;32.10
418;DHT22;49;48.530;9.200;2022-10-03T14:17:01;20.30;29.90
418;DHT22;49;48.530;9.200;2022-10-03T14:19:39;20.30;30.00
418;DHT22;49;48.530;9.200;2022-10-03T14:22:22;21.00;29.50
418;DHT22;49;48.530;9.200;2022-10-03T14:24:58;21.00;28.70
418;DHT22;49;48.530;9.200;2022-10-03T14:27:40;21.20;27.50
418;DHT22;49;48.530;9.200;2022-10-03T14:30:12;21.20;26.90
418;DHT22;49;48.530;9.200;2022-10-03T14:32:49;21.30;25.60
418;DHT22;49;48.530;9.200;2022-10-03T14:35:32;21.20;25.90
418;DHT22;49;48.530;9.200;2022-10-03T14:38:14;20.90;27.60
418;DHT22;49;48.530;9.200;2022-10-03T14:40:47;20.40;31.50
418;DHT22;49;48.530;9.200;2022-10-03T14:43:26;19.30;36.60
418;DHT22;49;48.530;9.200;2022-10-03T14:45:58;19.10;38.90
418;DHT22;49;48.530;9.200;2022-10-03T14:48:28;19.90;37.10
418;DHT22;49;48.530;9.200;2022-10-03T14:51:07;18.90;38.80
418;DHT22;49;48.530;9.200;2022-10-03T14:53:36;18.60;40.90
418;DHT22;49;48.530;9.200;2022-10-03T14:56:06;18.70;42.70
418;DHT22;49;48.530;9.200;2022-10-03T14:58:37;18.60;41.30
418;DHT22;49;48.530;9.200;2022-10-03T15:01:14;18.40;43.50
418;DHT22;49;48.530;9.200;2022-10-03T15:03:53;18.70;42.40
418;DHT22;49;48.530;9.200;2022-10-03T15:06:56;19.50;38.10
418;DHT22;49;48.530;9.200;2022-10-03T15:09:29;20.00;37.20
418;DHT22;49;48.530;9.200;2022-10-03T15:12:01;20.00;33.80
418;DHT22;49;48.530;9.200;2022-10-03T15:14:33;19.60;35.90
418;DHT22;49;48.530;9.200;2022-10-03T15:17:04;19.90;36.30
418;DHT22;49;48.530;9.200;2022-10-03T15:19:36;20.00;35.50
418;DHT22;49;48.530;9.200;2022-10-03T15:22:25;19.90;37.20
418;DHT22;49;48.530;9.200;2022-10-03T15:24:54;19.90;34.50
418;DHT22;49;48.530;9.200;2022-10-03T15:27:23;19.40;34.40
418;DHT22;49;48.530;9.200;2022-10-03T15:29:54;19.40;36.30
418;DHT22;49;48.530;9.200;2022-10-03T15:32:24;19.10;37.00
418;DHT22;49;48.530;9.200;2022-10-03T15:34:57;19.20;37.30
418;DHT22;49;48.530;9.200;2022-10-03T15:37:30;19.00;36.30
418;DHT22;49;48.530;9.200;2022-10-03T15:40:05;18.60;37.40
418;DHT22;49;48.530;9.200;2022-10-03T15:42:44;18.80;36.70
418;DHT22;49;48.530;9.200;2022-10-03T15:45:18;19.00;36.30
418;DHT22;49;48.530;9.200;2022-10-03T15:47:46;19.20;36.50
418;DHT22;49;48.530;9.200;2022-10-03T15:50:19;19.60;35.20
418;DHT22;49;48.530;9.200;2022-10-03T15:52:52;20.10;32.60
418;DHT22;49;48.530;9.200;2022-10-03T15:55:24;20.10;31.60
418;DHT22;49;48.530;9.200;2022-10-03T15:57:57;20.20;32.20
418;DHT22;49;48.530;9.200;2022-10-03T16:00:27;20.10;34.00
418;DHT22;49;48.530;9.200;2022-10-03T16:03:02;20.20;31.50
418;DHT22;49;48.530;9.200;2022-10-03T16:05:31;19.10;34.60
418;DHT22;49;48.530;9.200;2022-10-03T16:08:04;18.50;38.10
418;DHT22;49;48.530;9.200;2022-10-03T16:10:36;18.60;39.10
418;DHT22;49;48.530;9.200;2022-10-03T16:13:16;18.80;39.00
418;DHT22;49;48.530;9.200;2022-10-03T16:18:54;19.20;36.50
418;DHT22;49;48.530;9.200;2022-10-03T16:21:41;19.40;35.80
418;DHT22;49;48.530;9.200;2022-10-03T16:24:20;19.30;34.20
418;DHT22;49;48.530;9.200;2022-10-03T16:26:52;19.00;36.60
418;DHT22;49;48.530;9.200;2022-10-03T16:29:23;18.50;38.00
418;DHT22;49;48.530;9.200;2022-10-03T16:31:53;18.10;41.40
418;DHT22;49;48.530;9.200;2022-10-03T16:34:23;18.30;41.40
418;DHT22;49;48.530;9.200;2022-10-03T16:36:51;18.00;41.20
418;DHT22;49;48.530;9.200;2022-10-03T16:39:23;18.00;41.10
418;DHT22;49;48.530;9.200;2022-10-03T16:41:52;18.10;41.60
418;DHT22;49;48.530;9.200;2022-10-03T16:44:23;18.30;40.90
418;DHT22;49;48.530;9.200;2022-10-03T16:46:53;18.30;41.10
418;DHT22;49;48.530;9.200;2022-10-03T16:49:35;18.20;41.40
418;DHT22;49;48.530;9.200;2022-10-03T16:52:23;18.00;42.70
418;DHT22;49;48.530;9.200;2022-10-03T16:55:00;18.10;42.80
418;DHT22;49;48.530;9.200;2022-10-03T16:57:33;18.00;43.30
418;DHT22;49;48.530;9.200;2022-10-03T17:00:03;18.10;42.80
418;DHT22;49;48.530;9.200;2022-10-03T17:02:36;17.90;43.50
418;DHT22;49;48.530;9.200;2022-10-03T17:05:10;17.60;45.60
418;DHT22;49;48.530;9.200;2022-10-03T17:07:41;18.10;46.40
418;DHT22;49;48.530;9.200;2022-10-03T17:10:27;18.40;45.50
418;DHT22;49;48.530;9.200;2022-10-03T17:12:57;18.60;48.10
418;DHT22;49;48.530;9.200;2022-10-03T17:15:28;18.80;49.10
418;DHT22;49;48.530;9.200;2022-10-03T17:18:01;19.00;48.10
418;DHT22;49;48.530;9.200;2022-10-03T17:20:38;19.10;45.50
418;DHT22;49;48.530;9.200;2022-10-03T17:23:12;19.20;49.40
418;DHT22;49;48.530;9.200;2022-10-03T17:25:49;19.50;48.10
418;DHT22;49;48.530;9.200;2022-10-03T17:28:29;19.80;47.10
418;DHT22;49;48.530;9.200;2022-10-03T17:31:00;19.90;46.30
418;DHT22;49;48.530;9.200;2022-10-03T17:33:34;20.00;45.70
418;DHT22;49;48.530;9.200;2022-10-03T17:36:23;20.00;45.40
418;DHT22;49;48.530;9.200;2022-10-03T17:38:55;20.00;44.70
418;DHT22;49;48.530;9.200;2022-10-03T17:41:34;20.00;43.50
418;DHT22;49;48.530;9.200;2022-10-03T17:44:20;19.80;45.40
418;DHT22;49;48.530;9.200;2022-10-03T17:46:58;19.80;45.90
418;DHT22;49;48.530;9.200;2022-10-03T17:49:41;19.80;46.30
418;DHT22;49;48.530;9.200;2022-10-03T17:52:14;19.90;46.40
418;DHT22;49;48.530;9.200;2022-10-03T17:54:44;20.00;46.10
418;DHT22;49;48.530;9.200;2022-10-03T17:57:18;20.00;45.90
418;DHT22;49;48.530;9.200;2022-10-03T17:59:53;19.90;45.30
418;DHT22;49;48.530;9.200;2022-10-03T18:02:28;19.60;43.70
418;DHT22;49;48.530;9.200;2022-10-03T18:05:02;19.40;47.20
418;DHT22;49;48.530;9.200;2022-10-03T18:07:32;19.70;48.60
418;DHT22;49;48.530;9.200;2022-10-03T18:10:01;19.50;47.70
418;DHT22;49;48.530;9.200;2022-10-03T18:12:33;19.50;49.00
418;DHT22;49;48.530;9.200;2022-10-03T18:15:23;19.50;46.80
418;DHT22;49;48.530;9.200;2022-10-03T18:18:05;19.20;45.80
418;DHT22;49;48.530;9.200;2022-10-03T18:20:43;19.20;50.90
418;DHT22;49;48.530;9.200;2022-10-03T18:23:19;19.40;50.30
418;DHT22;49;48.530;9.200;2022-10-03T18:25:53;19.50;49.90
418;DHT22;49;48.530;9.200;2022-10-03T18:28:27;19.60;50.00
418;DHT22;49;48.530;9.200;2022-10-03T18:30:57;19.70;50.10
418;DHT22;49;48.530;9.200;2022-10-03T18:33:28;19.70;49.60
418;DHT22;49;48.530;9.200;2022-10-03T18:35:57;19.70;46.60
418;DHT22;49;48.530;9.200;2022-10-03T18:38:28;19.70;49.20
418;DHT22;49;48.530;9.200;2022-10-03T18:40:58;19.70;48.90
418;DHT22;49;48.530;9.200;2022-10-03T18:43:35;19.70;49.10
418;DHT22;49;48.530;9.200;2022-10-03T18:46:16;19.60;49.10
418;DHT22;49;48.530;9.200;2022-10-03T18:48:52;19.50;49.70
418;DHT22;49;48.530;9.200;2022-10-03T18:51:28;19.60;50.30
418;DHT22;49;48.530;9.200;2022-10-03T18:53:58;19.60;49.90
418;DHT22;49;48.530;9.200;2022-10-03T18:56:27;19.60;50.20
418;DHT22;49;48.530;9.200;2022-10-03T18:59:13;19.60;49.90
418;DHT22;49;48.530;9.200;2022-10-03T19:01:48;19.60;49.60
418;DHT22;49;48.530;9.200;2022-10-03T19:04:31;19.60;50.00
418;DHT22;49;48.530;9.200;2022-10-03T19:07:01;19.50;49.90
418;DHT22;49;48.530;9.200;2022-10-03T19:09:33;19.50;50.10
418;DHT22;49;48.530;9.200;2022-10-03T19:12:08;19.50;50.70
418;DHT22;49;48.530;9.200;2022-10-03T19:14:43;19.50;51.00
418;DHT22;49;48.530;9.200;2022-10-03T19:17:29;19.50;50.50
418;DHT22;49;48.530;9.200;2022-10-03T19:19:59;19.50;50.60
418;DHT22;49;48.530;9.200;2022-10-03T19:22:38;19.50;50.70
418;DHT22;49;48.530;9.200;2022-10-03T19:25:17;19.50;50.80
418;DHT22;49;48.530;9.200;2022-10-03T19:27:50;19.40;51.10
418;DHT22;49;48.530;9.200;2022-10-03T19:30:21;19.40;51.10
418;DHT22;49;48.530;9.200;2022-10-03T19:32:52;19.30;51.10
418;DHT22;49;48.530;9.200;2022-10-03T19:35:22;19.40;51.70
418;DHT22;49;48.530;9.200;2022-10-03T19:37:51;19.40;51.10
418;DHT22;49;48.530;9.200;2022-10-03T19:40:40;19.40;51.30
418;DHT22;49;48.530;9.200;2022-10-03T19:43:36;19.40;51.20
418;DHT22;49;48.530;9.200;2022-10-03T19:46:17;19.40;51.10
418;DHT22;49;48.530;9.200;2022-10-03T19:48:51;19.40;51.30
418;DHT22;49;48.530;9.200;2022-10-03T19:51:22;19.40;51.30
418;DHT22;49;48.530;9.200;2022-10-03T19:53:51;19.40;51.60
418;DHT22;49;48.530;9.200;2022-10-03T19:56:19;19.40;51.60
418;DHT22;49;48.530;9.200;2022-10-03T19:58:58;19.40;51.10
418;DHT22;49;48.530;9.200;2022-10-03T20:01:33;19.40;50.70
418;DHT22;49;48.530;9.200;2022-10-03T20:04:00;19.40;51.20
418;DHT22;49;48.530;9.200;2022-10-03T20:06:29;19.40;51.30
418;DHT22;49;48.530;9.200;2022-10-03T20:09:03;19.40;51.10
418;DHT22;49;48.530;9.200;2022-10-03T20:11:39;19.30;51.30
418;DHT22;49;48.530;9.200;2022-10-03T20:14:13;19.30;52.00
418;DHT22;49;48.530;9.200;2022-10-03T20:16:46;19.20;51.80
418;DHT22;49;48.530;9.200;2022-10-03T20:19:18;19.20;52.10
418;DHT22;49;48.530;9.200;2022-10-03T20:21:50;19.10;50.80
418;DHT22;49;48.530;9.200;2022-10-03T20:24:21;19.10;52.50
418;DHT22;49;48.530;9.200;2022-10-03T20:26:58;18.80;49.70
418;DHT22;49;48.530;9.200;2022-10-03T20:29:30;18.90;53.70
418;DHT22;49;48.530;9.200;2022-10-03T20:32:01;18.90;53.60
418;DHT22;49;48.530;9.200;2022-10-03T20:34:34;19.00;53.80
418;DHT22;49;48.530;9.200;2022-10-03T20:37:21;19.10;53.10
418;DHT22;49;48.530;9.200;2022-10-03T20:39:53;19.10;52.90
418;DHT22;49;48.530;9.200;2022-10-03T20:42:25;19.10;52.90
418;DHT22;49;48.530;9.200;2022-10-03T20:45:00;19.20;52.60
418;DHT22;49;48.530;9.200;2022-10-03T20:47:46;19.10;51.60
418;DHT22;49;48.530;9.200;2022-10-03T20:50:19;18.80;49.80
418;DHT22;49;48.530;9.200;2022-10-03T20:52:50;18.60;52.50
418;DHT22;49;48.530;9.200;2022-10-03T20:55:22;18.60;53.40
418;DHT22;49;48.530;9.200;2022-10-03T20:57:54;18.80;53.90
418;DHT22;49;48.530;9.200;2022-10-03T21:00:24;18.80;52.60
418;DHT22;49;48.530;9.200;2022-10-03T21:02:55;18.60;42.00
418;DHT22;49;48.530;9.200;2022-10-03T21:05:28;18.30;54.10